createdAt,value
2017-09-26T00:01:16.043Z,42.00
2017-09-26T00:03:44.401Z,40.97
2017-09-26T00:06:12.738Z,43.70
2017-09-26T00:08:41.159Z,43.67
2017-09-26T00:11:09.590Z,44.37
2017-09-26T00:13:38.429Z,44.43
2017-09-26T00:16:06.836Z,39.67
2017-09-26T00:18:35.257Z,40.70
2017-09-26T00:21:03.706Z,43.30
2017-09-26T00:23:32.059Z,43.57
2017-09-26T00:26:00.509Z,40.73
2017-09-26T00:28:28.874Z,38.40
2017-09-26T00:30:57.226Z,40.30
2017-09-26T00:33:25.630Z,40.77
2017-09-26T00:36:10.724Z,40.13
2017-09-26T00:38:40.132Z,38.73
2017-09-26T00:41:08.559Z,36.97
2017-09-26T00:43:37.750Z,37.43
2017-09-26T00:46:06.149Z,37.07
2017-09-26T00:48:34.489Z,36.07
2017-09-26T00:51:03.622Z,37.20
2017-09-26T00:53:31.982Z,36.80
2017-09-26T00:56:00.349Z,33.70
2017-09-26T00:58:28.740Z,39.57
2017-09-26T01:00:58.526Z,39.33
2017-09-26T01:03:28.286Z,37.00
2017-09-26T01:06:02.174Z,35.77
2017-09-26T01:08:30.572Z,32.73
2017-09-26T01:11:00.368Z,34.57
2017-09-26T01:13:28.806Z,30.33
2017-09-26T01:15:57.154Z,32.97
2017-09-26T01:18:25.495Z,32.57
2017-09-26T01:20:53.873Z,34.77
2017-09-26T01:23:22.252Z,32.80
2017-09-26T01:25:50.632Z,33.10
2017-09-26T01:28:18.947Z,33.40
2017-09-26T01:30:47.309Z,32.47
2017-09-26T01:33:15.648Z,31.50
2017-09-26T01:35:43.993Z,29.83
2017-09-26T01:38:12.385Z,30.20
2017-09-26T01:40:54.420Z,31.40
2017-09-26T01:43:22.824Z,31.83
2017-09-26T01:45:51.185Z,29.30
2017-09-26T01:48:19.536Z,30.70
2017-09-26T01:50:47.892Z,28.50
2017-09-26T01:53:16.305Z,30.70
2017-09-26T01:55:44.712Z,28.73
2017-09-26T01:58:13.735Z,30.70
2017-09-26T02:00:42.171Z,30.10
2017-09-26T02:03:10.568Z,29.60
2017-09-26T02:05:38.995Z,27.70
2017-09-26T02:08:07.449Z,30.60
2017-09-26T02:10:35.850Z,31.07
2017-09-26T02:13:04.984Z,31.20
2017-09-26T02:15:33.418Z,36.20
2017-09-26T02:18:01.754Z,32.83
2017-09-26T02:20:30.117Z,31.37
2017-09-26T02:22:58.557Z,32.73
2017-09-26T02:25:26.933Z,34.20
2017-09-26T02:27:55.273Z,33.23
2017-09-26T02:30:23.630Z,30.37
2017-09-26T02:32:52.027Z,29.53
2017-09-26T02:35:20.348Z,30.73
2017-09-26T02:37:48.749Z,29.97
2017-09-26T02:40:17.102Z,31.03
2017-09-26T02:42:45.571Z,33.73
2017-09-26T02:45:13.915Z,31.33
2017-09-26T02:47:42.317Z,28.17
2017-09-26T02:50:10.706Z,29.47
2017-09-26T02:52:39.088Z,28.10
2017-09-26T02:55:07.493Z,25.13
2017-09-26T02:57:35.893Z,27.47
2017-09-26T03:00:04.339Z,30.50
2017-09-26T03:02:32.736Z,27.53
2017-09-26T03:05:01.151Z,26.63
2017-09-26T03:07:29.529Z,25.73
2017-09-26T03:09:57.908Z,26.20
2017-09-26T03:12:26.282Z,24.73
2017-09-26T03:14:54.623Z,27.20
2017-09-26T03:17:22.987Z,23.97
2017-09-26T03:19:51.363Z,23.83
2017-09-26T03:22:19.725Z,22.73
2017-09-26T03:24:48.116Z,20.80
2017-09-26T03:27:16.481Z,22.60
2017-09-26T03:29:44.930Z,19.20
2017-09-26T03:32:13.333Z,20.90
2017-09-26T03:34:41.718Z,22.37
2017-09-26T03:37:10.122Z,21.50
2017-09-26T03:42:29.965Z,18.53
2017-09-26T03:44:58.293Z,21.93
2017-09-26T03:47:26.748Z,21.87
2017-09-26T03:49:55.176Z,20.90
2017-09-26T03:52:23.506Z,22.77
2017-09-26T03:54:51.957Z,19.90
2017-09-26T03:57:20.370Z,19.97
2017-09-26T03:59:48.824Z,22.33
2017-09-26T04:02:17.189Z,20.80
2017-09-26T04:04:45.595Z,14.93
2017-09-26T04:07:13.998Z,16.23
2017-09-26T04:09:42.388Z,15.13
2017-09-26T04:12:10.827Z,15.77
2017-09-26T04:14:39.307Z,14.70
2017-09-26T04:17:07.758Z,14.57
2017-09-26T04:19:36.182Z,15.10
2017-09-26T04:22:04.581Z,14.53
2017-09-26T04:24:33.041Z,14.60
2017-09-26T04:27:01.542Z,15.27
2017-09-26T04:29:29.874Z,16.30
2017-09-26T04:31:58.252Z,15.40
2017-09-26T04:34:26.691Z,16.03
2017-09-26T04:36:56.087Z,15.57
2017-09-26T04:39:24.443Z,16.50
2017-09-26T04:41:52.867Z,14.67
2017-09-26T04:44:21.290Z,14.63
2017-09-26T04:46:49.730Z,15.57
2017-09-26T04:49:18.296Z,13.00
2017-09-26T04:51:46.697Z,15.03
2017-09-26T04:54:15.067Z,13.00
2017-09-26T04:56:43.708Z,14.17
2017-09-26T04:59:12.518Z,15.07
2017-09-26T05:01:40.962Z,15.20
2017-09-26T05:04:09.419Z,14.77
2017-09-26T05:06:37.900Z,15.67
2017-09-26T05:09:06.401Z,13.70
2017-09-26T05:11:34.806Z,14.10
2017-09-26T05:14:03.264Z,13.33
2017-09-26T05:16:31.712Z,16.43
2017-09-26T05:19:00.124Z,13.80
2017-09-26T05:21:28.549Z,13.00
2017-09-26T05:23:56.966Z,14.83
2017-09-26T05:26:25.518Z,14.10
2017-09-26T05:28:53.862Z,14.10
2017-09-26T05:31:22.224Z,13.17
2017-09-26T05:33:52.406Z,12.63
2017-09-26T05:36:20.954Z,12.03
2017-09-26T05:38:49.337Z,12.83
2017-09-26T05:41:17.812Z,13.07
2017-09-26T05:43:46.342Z,11.67
2017-09-26T05:46:14.921Z,10.33
2017-09-26T05:48:43.403Z,10.73
2017-09-26T05:51:11.873Z,12.00
2017-09-26T05:53:40.505Z,10.60
2017-09-26T05:56:09.167Z,9.40
2017-09-26T05:58:37.612Z,10.70
2017-09-26T06:01:06.083Z,11.53
2017-09-26T06:03:34.591Z,11.40
2017-09-26T06:06:03.095Z,10.00
2017-09-26T06:08:31.497Z,11.70
2017-09-26T06:11:00.017Z,10.27
2017-09-26T06:13:28.526Z,11.93
2017-09-26T06:15:56.965Z,11.50
2017-09-26T06:18:25.645Z,10.07
2017-09-26T06:20:54.136Z,11.20
2017-09-26T06:23:22.523Z,10.07
2017-09-26T06:25:51.586Z,9.53
2017-09-26T06:28:20.064Z,9.90
2017-09-26T06:30:48.975Z,9.40
2017-09-26T06:33:17.669Z,8.20
2017-09-26T06:35:46.107Z,9.20
2017-09-26T06:38:15.860Z,8.13
2017-09-26T06:40:56.733Z,9.07
2017-09-26T06:43:25.209Z,8.03
2017-09-26T06:45:53.615Z,8.73
2017-09-26T06:48:22.290Z,8.70
2017-09-26T06:50:50.805Z,8.20
2017-09-26T06:53:19.182Z,9.03
2017-09-26T06:55:47.876Z,8.80
2017-09-26T06:58:16.355Z,8.90
2017-09-26T07:00:44.974Z,9.70
2017-09-26T07:03:13.794Z,9.87
2017-09-26T07:05:46.055Z,9.63
2017-09-26T07:08:15.376Z,8.60
2017-09-26T07:10:43.776Z,7.97
2017-09-26T07:13:12.264Z,8.60
2017-09-26T07:15:40.800Z,8.97
2017-09-26T07:18:09.424Z,9.57
2017-09-26T07:20:37.918Z,9.07
2017-09-26T07:23:06.416Z,10.00
2017-09-26T07:25:34.882Z,9.10
2017-09-26T07:28:03.514Z,8.27
2017-09-26T07:30:32.211Z,10.10
2017-09-26T07:33:00.752Z,9.60
2017-09-26T07:35:29.256Z,9.07
2017-09-26T07:37:57.710Z,11.30
2017-09-26T07:40:26.971Z,9.30
2017-09-26T07:42:55.509Z,10.67
2017-09-26T07:45:24.035Z,11.07
2017-09-26T07:47:52.464Z,10.23
2017-09-26T07:50:21.051Z,11.20
2017-09-26T07:52:49.537Z,11.23
2017-09-26T07:55:17.951Z,15.47
2017-09-26T07:57:46.450Z,13.83
2017-09-26T08:00:14.926Z,11.57
2017-09-26T08:02:43.719Z,12.20
2017-09-26T08:07:45.302Z,20.10
2017-09-26T08:10:13.653Z,11.83
2017-09-26T08:12:42.099Z,12.33
2017-09-26T08:15:11.664Z,12.57
2017-09-26T08:17:40.162Z,12.80
2017-09-26T08:20:08.690Z,13.50
2017-09-26T08:22:37.110Z,13.63
2017-09-26T08:25:05.472Z,13.07
2017-09-26T08:27:34.420Z,11.50
2017-09-26T08:30:03.066Z,12.63
2017-09-26T08:32:31.533Z,13.07
2017-09-26T08:35:00.198Z,13.10
2017-09-26T08:37:28.680Z,12.97
2017-09-26T08:39:57.226Z,13.87
2017-09-26T08:42:25.705Z,13.77
2017-09-26T08:44:54.211Z,16.70
2017-09-26T08:47:22.587Z,15.73
2017-09-26T08:49:52.323Z,15.93
2017-09-26T08:52:20.882Z,17.63
2017-09-26T08:54:49.309Z,16.87
2017-09-26T08:57:19.313Z,19.23
2017-09-26T08:59:47.750Z,16.93
2017-09-26T09:02:16.183Z,18.57
2017-09-26T09:04:44.638Z,17.47
2017-09-26T09:07:13.121Z,18.27
2017-09-26T09:09:41.575Z,18.50
2017-09-26T09:12:10.028Z,19.27
2017-09-26T09:14:38.654Z,17.90
2017-09-26T09:17:07.156Z,16.60
2017-09-26T09:19:35.624Z,17.80
2017-09-26T09:22:04.160Z,17.97
2017-09-26T09:24:32.593Z,19.27
2017-09-26T09:27:01.024Z,18.20
2017-09-26T09:29:29.554Z,17.83
2017-09-26T09:31:59.621Z,19.40
2017-09-26T09:34:28.069Z,19.07
2017-09-26T09:39:30.754Z,19.07
2017-09-26T09:41:59.264Z,17.00
2017-09-26T09:44:27.714Z,17.27
2017-09-26T09:49:30.142Z,18.27
2017-09-26T09:51:58.772Z,17.60
2017-09-26T09:54:27.833Z,16.80
2017-09-26T09:56:56.299Z,18.93
2017-09-26T09:59:24.830Z,15.90
2017-09-26T10:01:55.447Z,17.20
2017-09-26T10:04:23.990Z,16.40
2017-09-26T10:06:52.450Z,16.77
2017-09-26T10:09:20.930Z,17.37
2017-09-26T10:11:49.397Z,17.80
2017-09-26T10:14:17.786Z,16.60
2017-09-26T10:16:46.245Z,13.53
2017-09-26T10:19:14.680Z,9.90
2017-09-26T10:24:21.274Z,8.90
2017-09-26T10:26:49.798Z,10.30
2017-09-26T10:29:18.247Z,10.50
2017-09-26T10:31:50.437Z,9.30
2017-09-26T10:34:18.918Z,10.03
2017-09-26T10:36:47.522Z,9.93
2017-09-26T10:41:51.715Z,8.67
2017-09-26T10:44:20.086Z,8.43
2017-09-26T10:49:22.066Z,8.20
2017-09-26T10:51:50.595Z,7.30
2017-09-26T10:54:19.730Z,7.43
2017-09-26T10:56:48.266Z,8.70
2017-09-26T10:59:16.836Z,8.63
2017-09-26T11:01:45.455Z,8.93
2017-09-26T11:04:14.314Z,8.47
2017-09-26T11:06:43.033Z,7.50
2017-09-26T11:09:13.396Z,8.00
2017-09-26T11:11:41.966Z,7.47
2017-09-26T11:14:10.445Z,8.53
2017-09-26T11:16:38.895Z,8.50
2017-09-26T11:19:07.471Z,8.30
2017-09-26T11:21:36.034Z,8.80
2017-09-26T11:24:06.230Z,8.80
2017-09-26T11:26:34.717Z,10.50
2017-09-26T11:29:03.268Z,9.70
2017-09-26T11:31:31.771Z,9.77
2017-09-26T11:34:00.300Z,8.80
2017-09-26T11:36:28.882Z,8.97
2017-09-26T11:38:57.369Z,8.30
2017-09-26T11:41:25.892Z,9.30
2017-09-26T11:43:54.360Z,8.80
2017-09-26T11:46:25.914Z,8.80
2017-09-26T11:48:54.446Z,11.03
2017-09-26T11:51:22.936Z,10.67
2017-09-26T11:53:52.224Z,10.40
2017-09-26T11:56:20.793Z,10.20
2017-09-26T11:58:49.181Z,12.20
2017-09-26T12:01:17.602Z,10.73
2017-09-26T12:03:46.716Z,11.10
2017-09-26T12:06:15.400Z,10.70
2017-09-26T12:08:44.617Z,12.97
2017-09-26T12:11:13.734Z,12.13
2017-09-26T12:13:47.658Z,11.73
2017-09-26T12:16:16.941Z,12.17
2017-09-26T12:18:45.716Z,11.73
2017-09-26T12:21:14.220Z,12.40
2017-09-26T12:26:15.718Z,11.20
2017-09-26T12:28:44.309Z,12.47
2017-09-26T12:31:12.717Z,12.50
2017-09-26T12:33:41.169Z,11.20
2017-09-26T12:36:09.698Z,10.10
2017-09-26T12:38:38.531Z,11.20
2017-09-26T12:41:07.402Z,11.07
2017-09-26T12:43:36.182Z,12.63
2017-09-26T12:46:04.661Z,11.53
2017-09-26T12:48:33.403Z,10.40
2017-09-26T12:51:01.896Z,11.07
2017-09-26T12:53:30.339Z,10.83
2017-09-26T12:55:58.790Z,12.63
2017-09-26T12:58:27.201Z,13.03
2017-09-26T13:00:55.724Z,12.20
2017-09-26T13:03:24.426Z,11.80
2017-09-26T13:05:52.918Z,10.60
2017-09-26T13:08:21.390Z,12.13
2017-09-26T13:10:49.822Z,10.90
2017-09-26T13:13:18.373Z,12.10
2017-09-26T13:15:46.961Z,11.67
2017-09-26T13:18:15.489Z,11.47
2017-09-26T13:20:43.894Z,11.03
2017-09-26T13:23:12.804Z,11.63
2017-09-26T13:28:14.931Z,11.23
2017-09-26T13:30:43.457Z,11.67
2017-09-26T13:33:11.926Z,11.10
2017-09-26T13:35:40.502Z,10.90
2017-09-26T13:38:09.134Z,11.80
2017-09-26T13:40:38.002Z,9.80
2017-09-26T13:43:06.539Z,10.00
2017-09-26T13:45:36.436Z,9.03
2017-09-26T13:48:05.193Z,9.63
2017-09-26T13:50:33.602Z,12.00
2017-09-26T13:53:02.049Z,12.07
2017-09-26T13:55:30.498Z,14.40
2017-09-26T13:57:58.992Z,13.90
2017-09-26T14:00:27.596Z,14.50
2017-09-26T14:02:56.249Z,14.43
2017-09-26T14:05:24.905Z,15.97
2017-09-26T14:07:54.018Z,17.90
2017-09-26T14:10:23.163Z,15.70
2017-09-26T14:12:51.810Z,17.20
2017-09-26T14:15:20.345Z,14.53
2017-09-26T14:17:48.795Z,14.47
2017-09-26T14:20:17.216Z,14.50
2017-09-26T14:22:46.936Z,14.37
2017-09-26T14:25:16.877Z,13.43
2017-09-26T14:27:45.341Z,14.60
2017-09-26T14:30:13.821Z,15.70
2017-09-26T14:32:42.540Z,13.77
2017-09-26T14:35:11.355Z,13.27
2017-09-26T14:37:39.801Z,12.50
2017-09-26T14:40:08.647Z,14.10
2017-09-26T14:45:10.396Z,12.33
2017-09-26T14:47:39.087Z,11.33
2017-09-26T14:58:22.480Z,12.73
2017-09-26T15:00:50.962Z,12.50
2017-09-26T15:03:19.381Z,12.80
2017-09-26T15:05:47.960Z,13.30
2017-09-26T15:08:16.395Z,12.37
2017-09-26T15:10:44.835Z,13.47
2017-09-26T15:13:13.366Z,14.13
2017-09-26T15:15:41.843Z,14.83
2017-09-26T15:18:10.691Z,13.80
2017-09-26T15:20:39.312Z,13.43
2017-09-26T15:23:08.568Z,13.63
2017-09-26T15:25:38.813Z,15.03
2017-09-26T15:33:14.865Z,15.40
2017-09-26T15:35:43.824Z,16.50
2017-09-26T15:38:12.329Z,17.67
2017-09-26T15:40:40.766Z,18.37
2017-09-26T15:43:11.880Z,17.60
2017-09-26T15:45:40.368Z,17.30
2017-09-26T15:48:09.384Z,17.20
2017-09-26T15:53:10.873Z,17.03
2017-09-26T15:55:39.774Z,18.53
2017-09-26T15:58:08.592Z,18.10
2017-09-26T16:00:37.234Z,18.43
2017-09-26T16:03:06.499Z,16.73
2017-09-26T16:05:36.862Z,17.70
2017-09-26T16:08:05.428Z,17.63
2017-09-26T16:18:16.078Z,17.30
2017-09-26T16:23:18.221Z,17.07
2017-09-26T16:25:47.007Z,15.00
2017-09-26T16:28:15.780Z,15.27
2017-09-26T16:33:17.862Z,13.40
2017-09-26T16:40:52.226Z,13.77
2017-09-26T16:43:20.815Z,12.00
2017-09-26T16:45:49.286Z,12.97
2017-09-26T16:48:17.931Z,11.90
2017-09-26T16:50:53.358Z,11.77
2017-09-26T16:53:25.275Z,11.70
2017-09-26T16:58:27.313Z,12.80
2017-09-26T17:00:55.920Z,10.30
2017-09-26T17:05:57.135Z,11.27
2017-09-26T17:08:26.185Z,11.20
2017-09-26T17:10:55.534Z,11.33
2017-09-26T17:13:24.049Z,9.97
2017-09-26T17:15:52.917Z,12.53
2017-09-26T17:25:59.608Z,12.73
2017-09-26T17:28:28.275Z,12.13
2017-09-26T17:30:58.402Z,11.20
2017-09-26T17:35:59.570Z,13.40
2017-09-26T17:38:28.285Z,14.53
2017-09-26T17:40:56.949Z,13.50
2017-09-26T17:43:25.470Z,14.77
2017-09-26T17:45:53.963Z,14.93
2017-09-26T17:50:55.056Z,14.23
2017-09-26T17:53:23.812Z,13.80
2017-09-26T17:55:52.521Z,14.47
2017-09-26T17:58:21.254Z,14.03
2017-09-26T18:00:49.868Z,15.00
2017-09-26T18:03:18.305Z,14.83
2017-09-26T18:05:47.618Z,14.10
2017-09-26T18:08:16.167Z,15.90
2017-09-26T18:10:44.639Z,14.20
2017-09-26T18:13:13.128Z,13.20
2017-09-26T18:15:41.588Z,14.53
2017-09-26T18:18:10.479Z,13.97
2017-09-26T18:20:39.523Z,13.20
2017-09-26T18:23:08.347Z,12.13
2017-09-26T18:25:37.564Z,12.30
2017-09-26T18:28:06.085Z,11.87
2017-09-26T18:30:34.557Z,12.43
2017-09-26T18:33:03.026Z,11.67
2017-09-26T18:35:31.485Z,10.00
2017-09-26T18:38:01.952Z,12.57
2017-09-26T18:43:02.794Z,11.83
2017-09-26T18:45:31.252Z,12.23
2017-09-26T18:48:00.493Z,11.80
2017-09-26T18:50:29.012Z,11.17
2017-09-26T18:52:57.481Z,12.90
2017-09-26T18:55:26.118Z,10.17
2017-09-26T18:57:54.648Z,11.43
2017-09-26T19:00:23.204Z,10.10
2017-09-26T19:02:51.599Z,10.63
2017-09-26T19:05:20.143Z,11.10
2017-09-26T19:07:48.974Z,9.60
2017-09-26T19:10:17.444Z,10.30
2017-09-26T19:12:45.915Z,10.77
2017-09-26T19:15:16.889Z,11.70
2017-09-26T19:17:46.308Z,10.50
2017-09-26T19:20:14.974Z,10.77
2017-09-26T19:22:43.376Z,11.60
2017-09-26T19:25:11.856Z,11.50
2017-09-26T19:27:40.358Z,12.13
2017-09-26T19:30:08.912Z,10.83
2017-09-26T19:32:37.373Z,11.10
2017-09-26T19:35:05.758Z,12.03
2017-09-26T19:37:34.201Z,12.20
2017-09-26T19:40:02.799Z,12.10
2017-09-26T19:42:31.223Z,13.70
2017-09-26T19:44:59.608Z,13.00
2017-09-26T19:47:28.066Z,12.90
2017-09-26T19:49:56.515Z,11.90
2017-09-26T19:52:25.995Z,11.97
2017-09-26T19:54:54.479Z,14.27
2017-09-26T19:57:27.566Z,12.10
2017-09-26T19:59:55.968Z,11.80
2017-09-26T20:04:56.846Z,13.20
2017-09-26T20:07:25.269Z,13.70
2017-09-26T20:09:53.847Z,13.90
2017-09-26T20:12:22.269Z,14.60
2017-09-26T20:14:52.425Z,13.20
2017-09-26T20:17:21.862Z,14.70
2017-09-26T20:19:50.455Z,13.60
2017-09-26T20:22:21.401Z,15.47
2017-09-26T20:24:56.861Z,13.60
2017-09-26T20:27:36.068Z,13.10
2017-09-26T20:30:05.634Z,15.63
2017-09-26T20:32:34.148Z,13.27
2017-09-26T20:35:02.576Z,14.43
2017-09-26T20:37:30.989Z,14.37
2017-09-26T20:39:59.460Z,14.40
2017-09-26T20:42:27.859Z,15.83
2017-09-26T20:44:56.457Z,15.53
2017-09-26T20:47:24.842Z,16.47
2017-09-26T20:49:53.195Z,14.43
2017-09-26T20:52:21.556Z,15.60
2017-09-26T20:54:49.989Z,13.47
2017-09-26T20:57:18.341Z,16.47
2017-09-26T20:59:46.827Z,15.53
2017-09-26T21:02:15.197Z,14.73
2017-09-26T21:04:43.544Z,15.87
2017-09-26T21:07:11.908Z,16.60
2017-09-26T21:09:40.294Z,16.40
2017-09-26T21:12:08.679Z,15.00
2017-09-26T21:14:37.040Z,16.53
2017-09-26T21:17:18.229Z,16.57
2017-09-26T21:19:46.573Z,17.23
2017-09-26T21:22:14.957Z,16.93
2017-09-26T21:24:43.297Z,16.63
2017-09-26T21:27:11.816Z,16.80
2017-09-26T21:29:40.253Z,17.87
2017-09-26T21:32:08.612Z,16.73
2017-09-26T21:34:37.131Z,15.53
2017-09-26T21:37:05.473Z,15.83
2017-09-26T21:39:33.824Z,14.93
2017-09-26T21:42:02.163Z,17.60
2017-09-26T21:44:30.627Z,20.43
2017-09-26T21:46:59.008Z,18.20
2017-09-26T21:49:27.369Z,18.10
2017-09-26T21:51:55.845Z,17.10
2017-09-26T21:54:24.182Z,15.90
2017-09-26T21:56:52.525Z,17.13
2017-09-26T21:59:20.906Z,17.63
2017-09-26T22:01:49.249Z,16.57
2017-09-26T22:04:17.609Z,16.40
2017-09-26T22:06:45.992Z,17.47
2017-09-26T22:09:14.410Z,17.80
2017-09-26T22:11:42.778Z,15.60
2017-09-26T22:14:11.157Z,16.40
2017-09-26T22:16:39.547Z,17.17
2017-09-26T22:19:07.881Z,17.37
2017-09-26T22:21:36.227Z,18.43
2017-09-26T22:24:04.567Z,18.37
2017-09-26T22:26:32.914Z,17.07
2017-09-26T22:29:01.259Z,19.23
2017-09-26T22:31:29.665Z,17.00
2017-09-26T22:33:57.978Z,16.87
2017-09-26T22:36:26.309Z,17.57
2017-09-26T22:38:55.249Z,15.90
2017-09-26T22:41:23.633Z,17.00
2017-09-26T22:43:51.953Z,16.50
2017-09-26T22:46:20.290Z,17.93
2017-09-26T22:48:48.637Z,16.50
2017-09-26T22:54:15.262Z,17.80
2017-09-26T22:56:43.633Z,17.57
2017-09-26T22:59:12.031Z,18.47
2017-09-26T23:01:40.412Z,18.60
2017-09-26T23:04:08.841Z,17.83
2017-09-26T23:06:37.196Z,16.97
2017-09-26T23:09:06.393Z,17.13
2017-09-26T23:11:34.729Z,18.13
2017-09-26T23:14:03.068Z,16.43
2017-09-26T23:16:31.431Z,16.73
2017-09-26T23:18:59.750Z,17.43
2017-09-26T23:21:28.129Z,16.83
2017-09-26T23:23:56.456Z,18.03
2017-09-26T23:26:24.792Z,18.20
2017-09-26T23:28:53.152Z,18.70
2017-09-26T23:31:23.045Z,17.07
2017-09-26T23:33:51.399Z,17.97
2017-09-26T23:36:19.773Z,16.77
2017-09-26T23:38:48.121Z,18.00
2017-09-26T23:41:16.469Z,18.10
2017-09-26T23:43:44.951Z,15.63
2017-09-26T23:46:13.319Z,19.53
2017-09-26T23:48:41.636Z,18.43
2017-09-26T23:51:11.733Z,18.67
2017-09-26T23:53:40.216Z,17.40
2017-09-26T23:56:08.583Z,17.30
2017-09-26T23:58:36.962Z,19.30
